Angel Fire, New Mexico
Current Conditions -  °F | °C
As of 12:55 AM on Sunday 26 Oct 2014 (Local Time) from KAXX Reporting Station
Clear Clear  
Wind Chill: 53°   Ceiling: Unl
Heat Index: 53°   Visibility: 10mi
Dew Point: 24°   Wind: 8mph
Humidity: 33%   Direction: 260°W
Pressure: 30.3"   Gusts: NA
Location:  36.39°N, 105.29°W
Report Text: KAXX 260655Z AUTO 26007KT 10SM CLR 12/M04 A3030 RMK AO2 T01161044
Loading
Personal Weather Stations






























Interactive Weather Map
Tropical Storm Tracking
New forecast layout! Learn more

10-Day Weather Forecast

Advertisements
Track Severe Weather on mobile